sensor_id;sensor_type;location;lat;lon;timestamp;P1;durP1;ratioP1;P2;durP2;ratioP2
25023;SDS011;13033;50.936;5.334;2023-12-28T00:00:58;4.10;;;2.03;;
25023;SDS011;13033;50.936;5.334;2023-12-28T00:03:24;3.13;;;1.80;;
25023;SDS011;13033;50.936;5.334;2023-12-28T00:05:50;3.88;;;2.22;;
25023;SDS011;13033;50.936;5.334;2023-12-28T00:08:16;3.13;;;1.95;;
25023;SDS011;13033;50.936;5.334;2023-12-28T00:10:42;5.30;;;2.50;;
25023;SDS011;13033;50.936;5.334;2023-12-28T00:13:07;4.47;;;2.30;;
25023;SDS011;13033;50.936;5.334;2023-12-28T00:15:33;3.53;;;2.15;;
25023;SDS011;13033;50.936;5.334;2023-12-28T00:17:59;3.70;;;2.20;;
25023;SDS011;13033;50.936;5.334;2023-12-28T00:20:24;5.30;;;2.38;;
25023;SDS011;13033;50.936;5.334;2023-12-28T00:22:50;4.22;;;2.47;;
25023;SDS011;13033;50.936;5.334;2023-12-28T00:25:16;2.88;;;2.00;;
25023;SDS011;13033;50.936;5.334;2023-12-28T00:27:41;4.22;;;2.10;;
25023;SDS011;13033;50.936;5.334;2023-12-28T00:30:07;5.20;;;2.38;;
25023;SDS011;13033;50.936;5.334;2023-12-28T00:32:33;4.70;;;2.55;;
25023;SDS011;13033;50.936;5.334;2023-12-28T00:34:59;3.38;;;1.98;;
25023;SDS011;13033;50.936;5.334;2023-12-28T00:37:25;4.88;;;2.63;;
25023;SDS011;13033;50.936;5.334;2023-12-28T00:39:50;4.70;;;2.35;;
25023;SDS011;13033;50.936;5.334;2023-12-28T00:42:17;2.65;;;2.10;;
25023;SDS011;13033;50.936;5.334;2023-12-28T00:44:44;4.97;;;2.45;;
25023;SDS011;13033;50.936;5.334;2023-12-28T00:47:10;4.72;;;2.35;;
25023;SDS011;13033;50.936;5.334;2023-12-28T00:49:36;4.93;;;2.38;;
25023;SDS011;13033;50.936;5.334;2023-12-28T00:52:02;5.30;;;2.90;;
25023;SDS011;13033;50.936;5.334;2023-12-28T00:54:27;4.13;;;2.53;;
25023;SDS011;13033;50.936;5.334;2023-12-28T00:56:53;5.05;;;2.45;;
25023;SDS011;13033;50.936;5.334;2023-12-28T00:59:19;3.97;;;2.42;;
25023;SDS011;13033;50.936;5.334;2023-12-28T01:01:44;4.30;;;2.70;;
25023;SDS011;13033;50.936;5.334;2023-12-28T01:04:10;5.68;;;2.50;;
25023;SDS011;13033;50.936;5.334;2023-12-28T01:06:36;6.03;;;2.42;;
25023;SDS011;13033;50.936;5.334;2023-12-28T01:09:02;5.13;;;2.85;;
25023;SDS011;13033;50.936;5.334;2023-12-28T01:11:27;5.10;;;2.78;;
25023;SDS011;13033;50.936;5.334;2023-12-28T01:13:53;5.78;;;3.00;;
25023;SDS011;13033;50.936;5.334;2023-12-28T01:16:19;5.82;;;2.75;;
25023;SDS011;13033;50.936;5.334;2023-12-28T01:18:46;3.10;;;2.63;;
25023;SDS011;13033;50.936;5.334;2023-12-28T01:21:12;6.05;;;2.60;;
25023;SDS011;13033;50.936;5.334;2023-12-28T01:23:38;7.40;;;2.92;;
25023;SDS011;13033;50.936;5.334;2023-12-28T01:26:03;4.80;;;2.53;;
25023;SDS011;13033;50.936;5.334;2023-12-28T01:28:29;5.00;;;2.80;;
25023;SDS011;13033;50.936;5.334;2023-12-28T01:30:55;8.23;;;3.10;;
25023;SDS011;13033;50.936;5.334;2023-12-28T01:33:21;4.60;;;3.20;;
25023;SDS011;13033;50.936;5.334;2023-12-28T01:35:48;5.28;;;2.92;;
25023;SDS011;13033;50.936;5.334;2023-12-28T01:38:14;4.95;;;2.50;;
25023;SDS011;13033;50.936;5.334;2023-12-28T01:40:45;4.85;;;2.75;;
25023;SDS011;13033;50.936;5.334;2023-12-28T01:43:11;8.20;;;3.20;;
25023;SDS011;13033;50.936;5.334;2023-12-28T01:45:39;5.70;;;2.72;;
25023;SDS011;13033;50.936;5.334;2023-12-28T01:48:06;5.82;;;2.85;;
25023;SDS011;13033;50.936;5.334;2023-12-28T01:50:32;3.90;;;2.63;;
25023;SDS011;13033;50.936;5.334;2023-12-28T01:52:58;5.95;;;3.03;;
25023;SDS011;13033;50.936;5.334;2023-12-28T01:55:27;4.10;;;2.95;;
25023;SDS011;13033;50.936;5.334;2023-12-28T01:57:54;9.50;;;3.00;;
25023;SDS011;13033;50.936;5.334;2023-12-28T02:00:21;4.20;;;2.65;;
25023;SDS011;13033;50.936;5.334;2023-12-28T02:02:47;6.00;;;2.63;;
25023;SDS011;13033;50.936;5.334;2023-12-28T02:05:13;5.88;;;2.65;;
25023;SDS011;13033;50.936;5.334;2023-12-28T02:07:40;6.05;;;2.67;;
25023;SDS011;13033;50.936;5.334;2023-12-28T02:10:06;4.57;;;2.90;;
25023;SDS011;13033;50.936;5.334;2023-12-28T02:12:33;4.93;;;2.58;;
25023;SDS011;13033;50.936;5.334;2023-12-28T02:14:59;6.65;;;2.80;;
25023;SDS011;13033;50.936;5.334;2023-12-28T02:20:24;4.82;;;2.65;;
25023;SDS011;13033;50.936;5.334;2023-12-28T02:22:50;6.07;;;2.83;;
25023;SDS011;13033;50.936;5.334;2023-12-28T02:25:17;6.57;;;2.95;;
25023;SDS011;13033;50.936;5.334;2023-12-28T02:27:44;5.50;;;2.70;;
25023;SDS011;13033;50.936;5.334;2023-12-28T02:30:17;5.53;;;3.03;;
25023;SDS011;13033;50.936;5.334;2023-12-28T02:33:49;6.30;;;2.90;;
25023;SDS011;13033;50.936;5.334;2023-12-28T02:38:33;6.72;;;2.95;;
25023;SDS011;13033;50.936;5.334;2023-12-28T02:41:03;6.70;;;2.90;;
25023;SDS011;13033;50.936;5.334;2023-12-28T02:43:29;6.55;;;3.10;;
25023;SDS011;13033;50.936;5.334;2023-12-28T02:45:55;6.18;;;2.75;;
25023;SDS011;13033;50.936;5.334;2023-12-28T02:48:21;9.90;;;3.28;;
25023;SDS011;13033;50.936;5.334;2023-12-28T02:50:46;5.25;;;2.67;;
25023;SDS011;13033;50.936;5.334;2023-12-28T02:53:12;4.82;;;2.60;;
25023;SDS011;13033;50.936;5.334;2023-12-28T02:55:38;6.03;;;2.90;;
25023;SDS011;13033;50.936;5.334;2023-12-28T02:58:04;6.65;;;2.47;;
25023;SDS011;13033;50.936;5.334;2023-12-28T03:00:30;4.75;;;2.90;;
25023;SDS011;13033;50.936;5.334;2023-12-28T03:02:56;7.40;;;3.20;;
25023;SDS011;13033;50.936;5.334;2023-12-28T03:05:22;4.45;;;2.85;;
25023;SDS011;13033;50.936;5.334;2023-12-28T03:07:49;6.35;;;2.80;;
25023;SDS011;13033;50.936;5.334;2023-12-28T03:10:22;7.05;;;2.60;;
25023;SDS011;13033;50.936;5.334;2023-12-28T03:12:48;6.72;;;2.92;;
25023;SDS011;13033;50.936;5.334;2023-12-28T03:15:13;3.90;;;2.60;;
25023;SDS011;13033;50.936;5.334;2023-12-28T03:17:39;5.07;;;2.55;;
25023;SDS011;13033;50.936;5.334;2023-12-28T03:20:05;6.53;;;2.55;;
25023;SDS011;13033;50.936;5.334;2023-12-28T03:22:31;5.10;;;2.55;;
25023;SDS011;13033;50.936;5.334;2023-12-28T03:24:57;6.80;;;2.72;;
25023;SDS011;13033;50.936;5.334;2023-12-28T03:27:23;5.70;;;2.80;;
25023;SDS011;13033;50.936;5.334;2023-12-28T03:29:50;6.15;;;3.00;;
25023;SDS011;13033;50.936;5.334;2023-12-28T03:32:15;5.90;;;2.63;;
25023;SDS011;13033;50.936;5.334;2023-12-28T03:34:41;9.57;;;2.97;;
25023;SDS011;13033;50.936;5.334;2023-12-28T03:37:08;12.02;;;3.83;;
25023;SDS011;13033;50.936;5.334;2023-12-28T03:39:36;7.15;;;2.78;;
25023;SDS011;13033;50.936;5.334;2023-12-28T03:42:02;4.85;;;2.65;;
25023;SDS011;13033;50.936;5.334;2023-12-28T03:44:28;5.95;;;2.90;;
25023;SDS011;13033;50.936;5.334;2023-12-28T03:46:53;6.57;;;2.83;;
25023;SDS011;13033;50.936;5.334;2023-12-28T03:49:19;5.20;;;2.60;;
25023;SDS011;13033;50.936;5.334;2023-12-28T03:51:45;8.52;;;2.88;;
25023;SDS011;13033;50.936;5.334;2023-12-28T03:54:12;4.88;;;2.35;;
25023;SDS011;13033;50.936;5.334;2023-12-28T03:56:40;5.15;;;2.53;;
25023;SDS011;13033;50.936;5.334;2023-12-28T03:59:08;7.85;;;2.53;;
25023;SDS011;13033;50.936;5.334;2023-12-28T04:01:34;5.72;;;2.80;;
25023;SDS011;13033;50.936;5.334;2023-12-28T04:04:01;5.60;;;2.92;;
25023;SDS011;13033;50.936;5.334;2023-12-28T04:06:26;6.50;;;2.75;;
25023;SDS011;13033;50.936;5.334;2023-12-28T04:08:52;6.25;;;2.20;;
25023;SDS011;13033;50.936;5.334;2023-12-28T04:11:18;8.48;;;2.45;;
25023;SDS011;13033;50.936;5.334;2023-12-28T04:13:44;4.75;;;2.45;;
25023;SDS011;13033;50.936;5.334;2023-12-28T04:16:13;4.60;;;2.53;;
25023;SDS011;13033;50.936;5.334;2023-12-28T04:18:39;6.28;;;2.53;;
25023;SDS011;13033;50.936;5.334;2023-12-28T04:21:09;6.72;;;2.90;;
25023;SDS011;13033;50.936;5.334;2023-12-28T04:23:36;5.07;;;2.20;;
25023;SDS011;13033;50.936;5.334;2023-12-28T04:26:02;9.77;;;2.65;;
25023;SDS011;13033;50.936;5.334;2023-12-28T04:28:28;5.97;;;2.60;;
25023;SDS011;13033;50.936;5.334;2023-12-28T04:30:54;7.50;;;2.17;;
25023;SDS011;13033;50.936;5.334;2023-12-28T04:33:20;7.35;;;2.50;;
25023;SDS011;13033;50.936;5.334;2023-12-28T04:35:46;7.22;;;2.55;;
25023;SDS011;13033;50.936;5.334;2023-12-28T04:38:12;6.45;;;2.60;;
25023;SDS011;13033;50.936;5.334;2023-12-28T04:40:38;7.80;;;2.50;;
25023;SDS011;13033;50.936;5.334;2023-12-28T04:43:04;8.10;;;3.00;;
25023;SDS011;13033;50.936;5.334;2023-12-28T04:45:29;7.00;;;2.25;;
25023;SDS011;13033;50.936;5.334;2023-12-28T04:47:55;10.15;;;2.97;;
25023;SDS011;13033;50.936;5.334;2023-12-28T04:50:21;7.50;;;2.35;;
25023;SDS011;13033;50.936;5.334;2023-12-28T04:52:46;3.85;;;2.00;;
25023;SDS011;13033;50.936;5.334;2023-12-28T04:55:12;9.55;;;2.47;;
25023;SDS011;13033;50.936;5.334;2023-12-28T04:57:41;6.25;;;2.78;;
25023;SDS011;13033;50.936;5.334;2023-12-28T05:00:07;12.63;;;2.63;;
25023;SDS011;13033;50.936;5.334;2023-12-28T05:02:33;6.03;;;2.10;;
25023;SDS011;13033;50.936;5.334;2023-12-28T05:05:02;7.85;;;2.25;;
25023;SDS011;13033;50.936;5.334;2023-12-28T05:07:28;9.35;;;2.55;;
25023;SDS011;13033;50.936;5.334;2023-12-28T05:09:54;6.68;;;2.30;;
25023;SDS011;13033;50.936;5.334;2023-12-28T05:12:20;11.00;;;2.25;;
25023;SDS011;13033;50.936;5.334;2023-12-28T05:14:46;7.03;;;1.80;;
25023;SDS011;13033;50.936;5.334;2023-12-28T05:17:11;11.77;;;2.25;;
25023;SDS011;13033;50.936;5.334;2023-12-28T05:19:37;6.38;;;1.88;;
25023;SDS011;13033;50.936;5.334;2023-12-28T05:22:03;8.45;;;2.15;;
25023;SDS011;13033;50.936;5.334;2023-12-28T05:24:31;7.07;;;2.08;;
25023;SDS011;13033;50.936;5.334;2023-12-28T05:26:57;9.27;;;2.38;;
25023;SDS011;13033;50.936;5.334;2023-12-28T05:29:23;5.47;;;2.28;;
25023;SDS011;13033;50.936;5.334;2023-12-28T05:31:49;7.45;;;1.98;;
25023;SDS011;13033;50.936;5.334;2023-12-28T05:34:14;5.95;;;2.58;;
25023;SDS011;13033;50.936;5.334;2023-12-28T05:36:40;7.07;;;2.35;;
25023;SDS011;13033;50.936;5.334;2023-12-28T05:39:07;7.88;;;2.13;;
25023;SDS011;13033;50.936;5.334;2023-12-28T05:41:34;10.25;;;2.50;;
25023;SDS011;13033;50.936;5.334;2023-12-28T05:44:00;6.18;;;2.00;;
25023;SDS011;13033;50.936;5.334;2023-12-28T05:46:26;8.80;;;2.22;;
25023;SDS011;13033;50.936;5.334;2023-12-28T05:48:51;8.63;;;2.40;;
25023;SDS011;13033;50.936;5.334;2023-12-28T05:51:17;6.30;;;1.80;;
25023;SDS011;13033;50.936;5.334;2023-12-28T05:53:43;8.27;;;2.30;;
25023;SDS011;13033;50.936;5.334;2023-12-28T05:56:09;10.57;;;2.08;;
25023;SDS011;13033;50.936;5.334;2023-12-28T05:58:35;10.13;;;2.13;;
25023;SDS011;13033;50.936;5.334;2023-12-28T06:01:01;9.45;;;1.92;;
25023;SDS011;13033;50.936;5.334;2023-12-28T06:03:30;10.38;;;1.80;;
25023;SDS011;13033;50.936;5.334;2023-12-28T06:05:58;8.63;;;2.17;;
25023;SDS011;13033;50.936;5.334;2023-12-28T06:08:24;9.93;;;2.00;;
25023;SDS011;13033;50.936;5.334;2023-12-28T06:10:50;5.18;;;2.05;;
25023;SDS011;13033;50.936;5.334;2023-12-28T06:13:17;7.32;;;1.77;;
25023;SDS011;13033;50.936;5.334;2023-12-28T06:15:43;9.07;;;2.15;;
25023;SDS011;13033;50.936;5.334;2023-12-28T06:18:08;8.18;;;2.28;;
25023;SDS011;13033;50.936;5.334;2023-12-28T06:20:34;8.90;;;2.08;;
25023;SDS011;13033;50.936;5.334;2023-12-28T06:23:01;7.70;;;1.95;;
25023;SDS011;13033;50.936;5.334;2023-12-28T06:25:27;9.23;;;2.22;;
25023;SDS011;13033;50.936;5.334;2023-12-28T06:27:53;12.85;;;2.30;;
25023;SDS011;13033;50.936;5.334;2023-12-28T06:30:19;13.02;;;2.20;;
25023;SDS011;13033;50.936;5.334;2023-12-28T06:32:44;8.10;;;2.15;;
25023;SDS011;13033;50.936;5.334;2023-12-28T06:35:10;11.60;;;2.35;;
25023;SDS011;13033;50.936;5.334;2023-12-28T06:37:36;11.80;;;2.55;;
25023;SDS011;13033;50.936;5.334;2023-12-28T06:40:01;18.35;;;3.17;;
25023;SDS011;13033;50.936;5.334;2023-12-28T06:42:28;7.38;;;1.95;;
25023;SDS011;13033;50.936;5.334;2023-12-28T06:44:54;15.35;;;2.72;;
25023;SDS011;13033;50.936;5.334;2023-12-28T06:47:20;9.88;;;2.13;;
25023;SDS011;13033;50.936;5.334;2023-12-28T06:49:46;11.05;;;2.45;;
25023;SDS011;13033;50.936;5.334;2023-12-28T06:52:11;13.73;;;2.35;;
25023;SDS011;13033;50.936;5.334;2023-12-28T06:54:37;10.02;;;2.10;;
25023;SDS011;13033;50.936;5.334;2023-12-28T06:57:03;9.55;;;2.28;;
25023;SDS011;13033;50.936;5.334;2023-12-28T06:59:29;11.50;;;2.50;;
25023;SDS011;13033;50.936;5.334;2023-12-28T07:01:54;8.95;;;2.15;;
25023;SDS011;13033;50.936;5.334;2023-12-28T07:04:20;7.65;;;2.35;;
25023;SDS011;13033;50.936;5.334;2023-12-28T07:06:46;11.38;;;2.25;;
25023;SDS011;13033;50.936;5.334;2023-12-28T07:09:12;8.55;;;2.00;;
25023;SDS011;13033;50.936;5.334;2023-12-28T07:11:37;11.50;;;2.05;;
25023;SDS011;13033;50.936;5.334;2023-12-28T07:14:03;10.98;;;1.92;;
25023;SDS011;13033;50.936;5.334;2023-12-28T07:16:29;13.48;;;2.33;;
25023;SDS011;13033;50.936;5.334;2023-12-28T07:18:55;14.00;;;2.65;;
25023;SDS011;13033;50.936;5.334;2023-12-28T07:21:20;15.05;;;2.63;;
25023;SDS011;13033;50.936;5.334;2023-12-28T07:23:46;12.13;;;2.40;;
25023;SDS011;13033;50.936;5.334;2023-12-28T07:26:14;10.75;;;2.17;;
25023;SDS011;13033;50.936;5.334;2023-12-28T07:28:40;10.73;;;2.17;;
25023;SDS011;13033;50.936;5.334;2023-12-28T07:31:08;11.55;;;1.90;;
25023;SDS011;13033;50.936;5.334;2023-12-28T07:33:34;9.80;;;2.10;;
25023;SDS011;13033;50.936;5.334;2023-12-28T07:36:00;9.60;;;2.00;;
25023;SDS011;13033;50.936;5.334;2023-12-28T07:38:27;11.00;;;2.58;;
25023;SDS011;13033;50.936;5.334;2023-12-28T07:40:53;13.48;;;2.28;;
25023;SDS011;13033;50.936;5.334;2023-12-28T07:43:19;8.55;;;2.17;;
25023;SDS011;13033;50.936;5.334;2023-12-28T07:45:44;12.77;;;2.13;;
25023;SDS011;13033;50.936;5.334;2023-12-28T07:48:10;11.13;;;1.98;;
25023;SDS011;13033;50.936;5.334;2023-12-28T07:50:36;7.47;;;2.58;;
25023;SDS011;13033;50.936;5.334;2023-12-28T07:53:02;12.18;;;2.60;;
25023;SDS011;13033;50.936;5.334;2023-12-28T07:55:28;10.07;;;2.13;;
25023;SDS011;13033;50.936;5.334;2023-12-28T07:57:53;15.15;;;2.30;;
25023;SDS011;13033;50.936;5.334;2023-12-28T08:00:19;15.57;;;2.40;;
25023;SDS011;13033;50.936;5.334;2023-12-28T08:02:45;12.38;;;2.42;;
25023;SDS011;13033;50.936;5.334;2023-12-28T08:05:11;12.40;;;2.28;;
25023;SDS011;13033;50.936;5.334;2023-12-28T08:07:37;11.68;;;2.63;;
25023;SDS011;13033;50.936;5.334;2023-12-28T08:10:02;14.98;;;2.20;;
25023;SDS011;13033;50.936;5.334;2023-12-28T08:12:28;7.93;;;2.13;;
25023;SDS011;13033;50.936;5.334;2023-12-28T08:14:55;17.95;;;2.83;;
25023;SDS011;13033;50.936;5.334;2023-12-28T08:17:21;16.52;;;2.40;;
25023;SDS011;13033;50.936;5.334;2023-12-28T08:19:46;19.52;;;2.50;;
25023;SDS011;13033;50.936;5.334;2023-12-28T08:22:12;17.17;;;2.38;;
25023;SDS011;13033;50.936;5.334;2023-12-28T08:24:38;13.35;;;2.33;;
25023;SDS011;13033;50.936;5.334;2023-12-28T08:27:03;10.32;;;2.35;;
25023;SDS011;13033;50.936;5.334;2023-12-28T08:29:29;13.98;;;2.17;;
25023;SDS011;13033;50.936;5.334;2023-12-28T08:31:56;13.88;;;2.10;;
25023;SDS011;13033;50.936;5.334;2023-12-28T08:34:23;8.95;;;1.48;;
25023;SDS011;13033;50.936;5.334;2023-12-28T08:36:49;19.17;;;2.28;;
25023;SDS011;13033;50.936;5.334;2023-12-28T08:39:15;7.95;;;2.20;;
25023;SDS011;13033;50.936;5.334;2023-12-28T08:41:40;7.65;;;1.50;;
25023;SDS011;13033;50.936;5.334;2023-12-28T08:44:06;13.18;;;2.40;;
25023;SDS011;13033;50.936;5.334;2023-12-28T08:46:32;15.88;;;2.50;;
25023;SDS011;13033;50.936;5.334;2023-12-28T08:48:57;11.20;;;2.13;;
25023;SDS011;13033;50.936;5.334;2023-12-28T08:51:24;12.45;;;2.10;;
25023;SDS011;13033;50.936;5.334;2023-12-28T08:53:50;14.73;;;2.45;;
25023;SDS011;13033;50.936;5.334;2023-12-28T08:56:17;7.47;;;2.08;;
25023;SDS011;13033;50.936;5.334;2023-12-28T08:58:44;9.10;;;1.63;;
25023;SDS011;13033;50.936;5.334;2023-12-28T09:01:24;12.10;;;2.45;;
25023;SDS011;13033;50.936;5.334;2023-12-28T09:03:54;12.80;;;2.17;;
25023;SDS011;13033;50.936;5.334;2023-12-28T09:06:20;10.55;;;2.20;;
25023;SDS011;13033;50.936;5.334;2023-12-28T09:08:50;13.05;;;2.42;;
25023;SDS011;13033;50.936;5.334;2023-12-28T09:11:17;13.18;;;1.88;;
25023;SDS011;13033;50.936;5.334;2023-12-28T09:13:44;10.50;;;2.22;;
25023;SDS011;13033;50.936;5.334;2023-12-28T09:16:12;14.70;;;2.38;;
25023;SDS011;13033;50.936;5.334;2023-12-28T09:18:39;13.38;;;2.30;;
25023;SDS011;13033;50.936;5.334;2023-12-28T09:21:06;12.55;;;2.03;;
25023;SDS011;13033;50.936;5.334;2023-12-28T09:23:33;10.68;;;2.05;;
25023;SDS011;13033;50.936;5.334;2023-12-28T09:26:00;12.90;;;2.45;;
25023;SDS011;13033;50.936;5.334;2023-12-28T09:28:29;11.18;;;2.47;;
25023;SDS011;13033;50.936;5.334;2023-12-28T09:30:56;14.63;;;2.83;;
25023;SDS011;13033;50.936;5.334;2023-12-28T09:33:21;9.38;;;2.40;;
25023;SDS011;13033;50.936;5.334;2023-12-28T09:35:47;10.48;;;2.53;;
25023;SDS011;13033;50.936;5.334;2023-12-28T09:38:13;16.95;;;2.70;;
25023;SDS011;13033;50.936;5.334;2023-12-28T09:40:43;11.77;;;2.55;;
25023;SDS011;13033;50.936;5.334;2023-12-28T09:43:24;11.82;;;2.33;;
25023;SDS011;13033;50.936;5.334;2023-12-28T09:48:17;8.43;;;1.85;;
25023;SDS011;13033;50.936;5.334;2023-12-28T09:50:50;15.75;;;2.00;;
25023;SDS011;13033;50.936;5.334;2023-12-28T09:53:25;8.70;;;2.10;;
25023;SDS011;13033;50.936;5.334;2023-12-28T09:55:52;11.32;;;2.75;;
25023;SDS011;13033;50.936;5.334;2023-12-28T09:58:18;8.23;;;2.03;;
25023;SDS011;13033;50.936;5.334;2023-12-28T10:00:45;17.80;;;2.55;;
25023;SDS011;13033;50.936;5.334;2023-12-28T10:03:13;10.10;;;1.92;;
25023;SDS011;13033;50.936;5.334;2023-12-28T10:05:43;10.35;;;2.05;;
25023;SDS011;13033;50.936;5.334;2023-12-28T10:08:12;13.50;;;2.30;;
25023;SDS011;13033;50.936;5.334;2023-12-28T10:10:39;13.27;;;2.67;;
25023;SDS011;13033;50.936;5.334;2023-12-28T10:13:08;8.63;;;2.15;;
25023;SDS011;13033;50.936;5.334;2023-12-28T10:15:35;10.60;;;2.20;;
25023;SDS011;13033;50.936;5.334;2023-12-28T10:18:01;10.70;;;3.05;;
25023;SDS011;13033;50.936;5.334;2023-12-28T10:20:28;16.00;;;2.47;;
25023;SDS011;13033;50.936;5.334;2023-12-28T10:22:53;14.88;;;2.63;;
25023;SDS011;13033;50.936;5.334;2023-12-28T10:25:19;10.88;;;2.38;;
25023;SDS011;13033;50.936;5.334;2023-12-28T10:27:45;8.52;;;2.15;;
25023;SDS011;13033;50.936;5.334;2023-12-28T10:30:15;14.82;;;2.40;;
25023;SDS011;13033;50.936;5.334;2023-12-28T10:32:40;13.18;;;2.38;;
25023;SDS011;13033;50.936;5.334;2023-12-28T10:35:06;10.98;;;2.28;;
25023;SDS011;13033;50.936;5.334;2023-12-28T10:37:32;17.35;;;2.42;;
25023;SDS011;13033;50.936;5.334;2023-12-28T10:40:00;14.18;;;2.55;;
25023;SDS011;13033;50.936;5.334;2023-12-28T10:42:42;9.57;;;2.22;;
25023;SDS011;13033;50.936;5.334;2023-12-28T10:45:16;12.13;;;2.45;;
25023;SDS011;13033;50.936;5.334;2023-12-28T10:48:00;14.65;;;2.20;;
25023;SDS011;13033;50.936;5.334;2023-12-28T10:50:43;8.13;;;2.00;;
25023;SDS011;13033;50.936;5.334;2023-12-28T11:01:26;15.77;;;2.33;;
25023;SDS011;13033;50.936;5.334;2023-12-28T11:04:02;9.00;;;2.00;;
25023;SDS011;13033;50.936;5.334;2023-12-28T11:06:58;11.63;;;2.28;;
25023;SDS011;13033;50.936;5.334;2023-12-28T11:09:26;12.73;;;2.65;;
25023;SDS011;13033;50.936;5.334;2023-12-28T11:11:57;9.18;;;2.30;;
25023;SDS011;13033;50.936;5.334;2023-12-28T11:14:27;9.10;;;1.80;;
25023;SDS011;13033;50.936;5.334;2023-12-28T11:16:53;5.82;;;2.30;;
25023;SDS011;13033;50.936;5.334;2023-12-28T11:19:20;12.73;;;2.55;;
25023;SDS011;13033;50.936;5.334;2023-12-28T11:21:50;13.57;;;2.80;;
25023;SDS011;13033;50.936;5.334;2023-12-28T11:24:17;13.32;;;2.17;;
25023;SDS011;13033;50.936;5.334;2023-12-28T11:26:44;12.65;;;2.65;;
25023;SDS011;13033;50.936;5.334;2023-12-28T11:29:18;17.20;;;2.95;;
25023;SDS011;13033;50.936;5.334;2023-12-28T11:31:44;13.10;;;2.20;;
25023;SDS011;13033;50.936;5.334;2023-12-28T11:34:19;11.18;;;2.08;;
25023;SDS011;13033;50.936;5.334;2023-12-28T11:36:51;11.27;;;2.40;;
25023;SDS011;13033;50.936;5.334;2023-12-28T11:39:29;10.05;;;2.40;;
25023;SDS011;13033;50.936;5.334;2023-12-28T11:44:31;10.95;;;2.22;;
25023;SDS011;13033;50.936;5.334;2023-12-28T11:47:10;9.07;;;1.90;;
25023;SDS011;13033;50.936;5.334;2023-12-28T11:49:36;10.77;;;2.38;;
25023;SDS011;13033;50.936;5.334;2023-12-28T11:52:02;11.82;;;2.35;;
25023;SDS011;13033;50.936;5.334;2023-12-28T11:54:30;15.10;;;2.38;;
25023;SDS011;13033;50.936;5.334;2023-12-28T11:56:56;11.85;;;2.50;;
25023;SDS011;13033;50.936;5.334;2023-12-28T11:59:21;8.25;;;1.92;;
25023;SDS011;13033;50.936;5.334;2023-12-28T12:01:50;10.80;;;2.05;;
25023;SDS011;13033;50.936;5.334;2023-12-28T12:04:17;14.70;;;2.17;;
25023;SDS011;13033;50.936;5.334;2023-12-28T12:06:44;10.57;;;1.75;;
25023;SDS011;13033;50.936;5.334;2023-12-28T12:09:11;11.73;;;2.00;;
25023;SDS011;13033;50.936;5.334;2023-12-28T12:11:39;12.40;;;2.30;;
25023;SDS011;13033;50.936;5.334;2023-12-28T12:14:11;14.38;;;2.50;;
25023;SDS011;13033;50.936;5.334;2023-12-28T12:16:37;12.73;;;2.25;;
25023;SDS011;13033;50.936;5.334;2023-12-28T12:19:05;10.35;;;2.42;;
25023;SDS011;13033;50.936;5.334;2023-12-28T12:21:32;13.30;;;2.28;;
25023;SDS011;13033;50.936;5.334;2023-12-28T12:24:01;7.97;;;1.48;;
25023;SDS011;13033;50.936;5.334;2023-12-28T12:26:29;17.35;;;2.58;;
25023;SDS011;13033;50.936;5.334;2023-12-28T12:28:56;12.70;;;2.05;;
25023;SDS011;13033;50.936;5.334;2023-12-28T12:31:22;14.40;;;2.88;;
25023;SDS011;13033;50.936;5.334;2023-12-28T12:33:51;13.10;;;3.28;;
25023;SDS011;13033;50.936;5.334;2023-12-28T12:36:17;10.20;;;2.03;;
25023;SDS011;13033;50.936;5.334;2023-12-28T12:38:43;10.82;;;2.25;;
25023;SDS011;13033;50.936;5.334;2023-12-28T12:41:12;13.10;;;2.47;;
25023;SDS011;13033;50.936;5.334;2023-12-28T12:43:38;13.93;;;2.28;;
25023;SDS011;13033;50.936;5.334;2023-12-28T12:46:06;6.47;;;1.83;;
25023;SDS011;13033;50.936;5.334;2023-12-28T12:48:31;11.32;;;2.15;;
25023;SDS011;13033;50.936;5.334;2023-12-28T12:50:57;14.75;;;2.83;;
25023;SDS011;13033;50.936;5.334;2023-12-28T12:53:32;12.02;;;2.88;;
25023;SDS011;13033;50.936;5.334;2023-12-28T12:55:59;8.52;;;1.90;;
25023;SDS011;13033;50.936;5.334;2023-12-28T12:58:24;9.98;;;2.20;;
25023;SDS011;13033;50.936;5.334;2023-12-28T13:00:52;12.38;;;2.40;;
25023;SDS011;13033;50.936;5.334;2023-12-28T13:03:19;8.38;;;2.25;;
25023;SDS011;13033;50.936;5.334;2023-12-28T13:05:45;8.40;;;1.92;;
25023;SDS011;13033;50.936;5.334;2023-12-28T13:08:11;11.57;;;1.92;;
25023;SDS011;13033;50.936;5.334;2023-12-28T13:10:37;16.58;;;2.47;;
25023;SDS011;13033;50.936;5.334;2023-12-28T13:13:06;17.02;;;2.55;;
25023;SDS011;13033;50.936;5.334;2023-12-28T13:15:32;11.93;;;2.53;;
25023;SDS011;13033;50.936;5.334;2023-12-28T13:17:58;14.63;;;2.25;;
25023;SDS011;13033;50.936;5.334;2023-12-28T13:20:23;10.18;;;2.08;;
25023;SDS011;13033;50.936;5.334;2023-12-28T13:22:51;15.07;;;2.38;;
25023;SDS011;13033;50.936;5.334;2023-12-28T13:25:16;10.98;;;2.78;;
25023;SDS011;13033;50.936;5.334;2023-12-28T13:27:43;12.35;;;2.20;;
25023;SDS011;13033;50.936;5.334;2023-12-28T13:30:09;11.13;;;2.50;;
25023;SDS011;13033;50.936;5.334;2023-12-28T13:32:37;13.20;;;2.20;;
25023;SDS011;13033;50.936;5.334;2023-12-28T13:35:04;10.10;;;2.05;;
25023;SDS011;13033;50.936;5.334;2023-12-28T13:37:30;11.00;;;1.98;;
25023;SDS011;13033;50.936;5.334;2023-12-28T13:39:55;13.52;;;2.28;;
25023;SDS011;13033;50.936;5.334;2023-12-28T13:42:21;13.23;;;2.60;;
25023;SDS011;13033;50.936;5.334;2023-12-28T13:44:47;20.40;;;2.55;;
25023;SDS011;13033;50.936;5.334;2023-12-28T13:47:12;13.25;;;2.67;;
25023;SDS011;13033;50.936;5.334;2023-12-28T13:49:38;13.10;;;2.25;;
25023;SDS011;13033;50.936;5.334;2023-12-28T13:52:04;10.18;;;1.90;;
25023;SDS011;13033;50.936;5.334;2023-12-28T13:54:30;15.18;;;1.92;;
25023;SDS011;13033;50.936;5.334;2023-12-28T13:56:56;15.27;;;2.58;;
25023;SDS011;13033;50.936;5.334;2023-12-28T13:59:23;16.80;;;2.80;;
25023;SDS011;13033;50.936;5.334;2023-12-28T14:01:49;10.63;;;2.17;;
25023;SDS011;13033;50.936;5.334;2023-12-28T14:04:16;7.53;;;2.20;;
25023;SDS011;13033;50.936;5.334;2023-12-28T14:09:14;10.77;;;1.60;;
25023;SDS011;13033;50.936;5.334;2023-12-28T14:11:48;18.77;;;2.40;;
25023;SDS011;13033;50.936;5.334;2023-12-28T14:14:14;14.35;;;2.30;;
25023;SDS011;13033;50.936;5.334;2023-12-28T14:16:40;15.23;;;2.25;;
25023;SDS011;13033;50.936;5.334;2023-12-28T14:19:07;14.85;;;2.30;;
25023;SDS011;13033;50.936;5.334;2023-12-28T14:21:37;13.02;;;2.30;;
25023;SDS011;13033;50.936;5.334;2023-12-28T14:24:04;11.13;;;1.85;;
25023;SDS011;13033;50.936;5.334;2023-12-28T14:26:32;9.20;;;2.20;;
25023;SDS011;13033;50.936;5.334;2023-12-28T14:28:59;11.25;;;2.00;;
25023;SDS011;13033;50.936;5.334;2023-12-28T14:31:29;12.45;;;2.15;;
25023;SDS011;13033;50.936;5.334;2023-12-28T14:33:55;11.85;;;2.42;;
25023;SDS011;13033;50.936;5.334;2023-12-28T14:36:27;9.93;;;2.30;;
25023;SDS011;13033;50.936;5.334;2023-12-28T14:38:56;7.97;;;1.77;;
25023;SDS011;13033;50.936;5.334;2023-12-28T14:41:25;10.05;;;1.67;;
25023;SDS011;13033;50.936;5.334;2023-12-28T14:43:52;10.25;;;1.98;;
25023;SDS011;13033;50.936;5.334;2023-12-28T14:46:19;11.40;;;2.28;;
25023;SDS011;13033;50.936;5.334;2023-12-28T14:48:45;12.65;;;2.08;;
25023;SDS011;13033;50.936;5.334;2023-12-28T14:51:12;9.68;;;2.00;;
25023;SDS011;13033;50.936;5.334;2023-12-28T14:53:38;7.47;;;2.08;;
25023;SDS011;13033;50.936;5.334;2023-12-28T14:56:03;11.80;;;1.92;;
25023;SDS011;13033;50.936;5.334;2023-12-28T14:58:29;13.73;;;2.00;;
25023;SDS011;13033;50.936;5.334;2023-12-28T15:00:55;11.27;;;1.98;;